TimeMDT,TemperatureF,Dew PointF,Humidity,Sea Level PressureIn,VisibilityMPH,Wind Direction,Wind SpeedMPH,Gust SpeedMPH,PrecipitationIn,Events,Conditions,WindDirDegrees,DateUTC
12:53 AM,48.0,34.0,58,29.95,10.0,South,3.5,-,N/A,,Overcast,180,2012-10-29 06:53:00
1:53 AM,46.0,34.0,63,29.96,10.0,North,3.5,-,N/A,,Overcast,350,2012-10-29 07:53:00
2:53 AM,42.1,34.0,73,29.95,10.0,SE,3.5,-,N/A,,Mostly Cloudy,130,2012-10-29 08:53:00
3:53 AM,44.1,34.0,68,29.94,10.0,South,5.8,-,N/A,,Overcast,170,2012-10-29 09:53:00
4:53 AM,37.9,33.1,83,29.96,10.0,SSW,4.6,-,N/A,,Mostly Cloudy,200,2012-10-29 10:53:00
5:53 AM,37.9,30.9,76,29.98,10.0,WSW,3.5,-,N/A,,Clear,240,2012-10-29 11:53:00
6:53 AM,35.1,30.0,82,30.00,10.0,Calm,Calm,-,N/A,,Clear,0,2012-10-29 12:53:00
7:53 AM,34.0,30.0,85,30.01,10.0,SSE,4.6,-,N/A,,Clear,150,2012-10-29 13:53:00
8:53 AM,37.0,32.0,82,30.04,5.0,SSW,4.6,-,N/A,,Haze,210,2012-10-29 14:53:00
9:53 AM,44.1,34.0,68,30.01,10.0,West,6.9,-,N/A,,Clear,260,2012-10-29 15:53:00
10:53 AM,46.0,33.1,61,30.00,10.0,WSW,3.5,-,N/A,,Clear,240,2012-10-29 16:53:00
11:53 AM,50.0,34.0,54,29.98,10.0,Calm,Calm,-,N/A,,Clear,0,2012-10-29 17:53:00
12:53 PM,52.0,35.1,53,29.95,10.0,Calm,Calm,-,N/A,,Clear,0,2012-10-29 18:53:00
2:53 PM,63.0,36.0,37,29.91,10.0,NNW,6.9,-,N/A,,Mostly Cloudy,330,2012-10-29 20:53:00
3:53 PM,64.9,35.1,33,29.92,10.0,NW,8.1,-,N/A,,Partly Cloudy,310,2012-10-29 21:53:00
4:53 PM,66.9,34.0,30,29.93,10.0,NNW,4.6,-,N/A,,Clear,340,2012-10-29 22:53:00
5:53 PM,57.9,35.1,42,29.96,10.0,East,4.6,-,N/A,,Clear,100,2012-10-29 23:53:00
6:53 PM,52.0,33.1,49,30.00,10.0,NE,3.5,-,N/A,,Clear,40,2012-10-30 00:53:00
7:53 PM,52.0,33.1,49,30.03,10.0,South,8.1,-,N/A,,Clear,170,2012-10-30 01:53:00
8:53 PM,51.1,34.0,52,30.04,10.0,SSE,9.2,-,N/A,,Clear,160,2012-10-30 02:53:00
9:53 PM,48.9,35.1,59,30.03,10.0,Variable,4.6,-,N/A,,Clear,0,2012-10-30 03:53:00
10:53 PM,46.0,34.0,63,30.05,10.0,SSW,12.7,-,N/A,,Clear,200,2012-10-30 04:53:00
11:53 PM,44.1,33.1,65,30.04,10.0,South,8.1,-,N/A,,Clear,180,2012-10-30 05:53:00